Time;durP1;ratioP1;P1;durP2;ratioP2;P2;SDS_P1;SDS_P2;PMS_P1;PMS_P2;Temp;Humidity;BMP_temperature;BMP_pressure;BME280_temperature;BME280_humidity;BME280_pressure;Samples;Min_cycle;Max_cycle;Signal;HPM_P1;HPM_P2
2021/03/25 00:01:34;;;;;;;9.77;4.95;;;18.50;99.60;;;;;;5039052;27;20085;-60
2021/03/25 00:04:01;;;;;;;8.70;4.70;;;18.40;99.60;;;;;;5048837;28;20429;-60
2021/03/25 00:06:28;;;;;;;8.73;4.85;;;18.40;99.80;;;;;;5035723;28;20021;-60
2021/03/25 00:08:54;;;;;;;9.20;5.18;;;18.40;99.50;;;;;;5035667;28;20060;-60
2021/03/25 00:11:20;;;;;;;7.97;5.20;;;18.40;99.90;;;;;;5049044;28;20060;-60
2021/03/25 00:13:46;;;;;;;10.85;5.10;;;18.40;99.90;;;;;;5048898;28;20040;-61
2021/03/25 00:16:12;;;;;;;9.77;4.90;;;18.40;99.90;;;;;;5049041;28;20025;-60
2021/03/25 00:18:38;;;;;;;9.82;5.22;;;18.40;99.70;;;;;;5048667;28;20049;-61
2021/03/25 00:21:09;;;;;;;9.73;5.20;;;18.40;99.90;;;;;;5049216;28;20021;-61
2021/03/25 00:23:35;;;;;;;8.88;4.90;;;18.40;99.90;;;;;;5049239;28;20052;-61
2021/03/25 00:26:01;;;;;;;10.23;5.13;;;18.40;99.90;;;;;;5049120;28;20060;-61
2021/03/25 00:28:27;;;;;;;8.93;4.90;;;18.40;99.90;;;;;;5047560;28;20068;-61
2021/03/25 00:30:53;;;;;;;9.95;5.45;;;18.30;99.90;;;;;;5048797;28;20405;-61
2021/03/25 00:33:21;;;;;;;9.15;5.63;;;18.30;99.90;;;;;;5048490;28;20060;-60
2021/03/25 00:35:48;;;;;;;10.65;5.28;;;18.40;99.90;;;;;;5048606;28;20479;-61
2021/03/25 00:38:15;;;;;;;11.57;5.43;;;18.30;99.90;;;;;;5048634;28;20036;-61
2021/03/25 00:40:43;;;;;;;9.88;5.45;;;18.40;99.90;;;;;;5048807;28;20045;-59
2021/03/25 00:43:10;;;;;;;10.32;5.43;;;18.30;99.90;;;;;;5047745;28;20029;-61
2021/03/25 00:45:39;;;;;;;10.07;5.28;;;18.30;99.90;;;;;;5049005;28;20025;-59
2021/03/25 00:48:06;;;;;;;13.32;5.95;;;18.20;99.90;;;;;;5048809;28;20033;-59
2021/03/25 00:50:35;;;;;;;9.13;5.30;;;18.30;99.90;;;;;;5048611;28;20053;-59
2021/03/25 00:53:02;;;;;;;9.20;5.72;;;18.20;99.90;;;;;;5047494;28;20365;-61
2021/03/25 00:55:28;;;;;;;8.77;5.30;;;18.30;99.90;;;;;;5048279;28;20025;-60
2021/03/25 00:57:53;;;;;;;9.63;5.50;;;18.20;99.90;;;;;;5048471;28;20492;-61
2021/03/25 01:00:25;;;;;;;11.95;5.57;;;18.20;99.90;;;;;;5048587;28;20430;-62
2021/03/25 01:02:51;;;;;;;12.10;6.43;;;18.20;99.90;;;;;;5048440;28;20586;-61
2021/03/25 01:05:18;;;;;;;11.30;6.20;;;18.20;99.90;;;;;;5048357;28;20104;-61
2021/03/25 01:07:44;;;;;;;11.23;5.53;;;18.20;99.90;;;;;;5048230;28;20468;-61
2021/03/25 01:10:16;;;;;;;10.95;5.85;;;18.20;99.90;;;;;;5048719;28;20033;-61
2021/03/25 01:12:42;;;;;;;12.00;6.00;;;18.20;99.90;;;;;;5048507;28;20085;-61
2021/03/25 01:15:09;;;;;;;8.63;5.47;;;18.20;99.90;;;;;;5048641;28;20021;-60
2021/03/25 01:17:53;;;;;;;9.88;5.80;;;18.10;99.90;;;;;;5047831;28;20041;-61
2021/03/25 01:20:23;;;;;;;;;;;18.10;99.90;;;;;;5048758;28;20095;-61
2021/03/25 01:22:49;;;;;;;10.80;5.70;;;18.10;99.90;;;;;;5048292;28;20371;-61
2021/03/25 01:25:15;;;;;;;10.90;6.30;;;18.10;99.90;;;;;;5048096;28;20029;-61
2021/03/25 01:27:41;;;;;;;14.52;6.22;;;18.10;99.90;;;;;;5048216;28;20029;-60
2021/03/25 01:30:08;;;;;;;11.93;6.18;;;18.10;99.90;;;;;;5048839;28;20036;-60
2021/03/25 01:32:33;;;;;;;10.82;6.32;;;18.00;99.90;;;;;;5051464;28;20025;-60
2021/03/25 01:34:59;;;;;;;8.35;5.82;;;18.00;99.90;;;;;;5051404;28;20017;-61
2021/03/25 01:37:24;;;;;;;10.35;5.97;;;18.00;99.90;;;;;;5051354;28;20041;-61
2021/03/25 01:39:51;;;;;;;10.32;5.95;;;18.00;99.90;;;;;;5051542;28;20032;-60
2021/03/25 01:42:27;;;;;;;9.60;6.00;;;18.00;99.90;;;;;;5050992;28;20052;-60
2021/03/25 01:44:52;;;;;;;11.18;6.53;;;18.00;99.90;;;;;;5050881;28;20358;-61
2021/03/25 01:47:19;;;;;;;10.95;6.22;;;18.00;99.90;;;;;;5051350;28;20043;-61
2021/03/25 01:49:44;;;;;;;9.55;6.18;;;18.00;99.90;;;;;;5051181;28;20028;-61
2021/03/25 01:52:44;;;;;;;9.02;5.47;;;17.90;99.90;;;;;;5051538;28;20021;-60
2021/03/25 01:55:46;;;;;;;8.70;6.15;;;17.90;99.90;;;;;;5051750;28;20392;-60
2021/03/25 01:58:37;;;;;;;11.90;6.68;;;17.90;99.90;;;;;;5051597;28;20029;-60
2021/03/25 02:01:18;;;;;;;9.40;6.15;;;17.90;99.90;;;;;;5031263;28;20067;-61
2021/03/25 02:03:55;;;;;;;10.90;6.57;;;17.90;99.90;;;;;;5046030;28;20112;-60
2021/03/25 02:06:43;;;;;;;10.38;6.55;;;17.80;99.90;;;;;;5051036;28;20029;-61
2021/03/25 02:09:38;;;;;;;11.57;6.18;;;17.90;99.90;;;;;;5051282;28;20059;-61
2021/03/25 02:12:31;;;;;;;10.63;6.10;;;17.80;99.90;;;;;;5051023;28;20586;-61
2021/03/25 02:15:29;;;;;;;12.38;6.90;;;17.80;99.90;;;;;;5050979;28;20119;-60
2021/03/25 02:18:28;;;;;;;9.80;6.60;;;17.80;99.90;;;;;;5050620;28;20078;-61
2021/03/25 02:21:47;;;;;;;11.15;6.55;;;17.80;99.90;;;;;;5050353;28;20029;-60
2021/03/25 02:24:40;;;;;;;10.38;6.38;;;17.80;99.90;;;;;;4989757;28;20034;-61
2021/03/25 02:27:43;;;;;;;9.80;6.00;;;17.80;99.90;;;;;;5050682;28;20044;-61
2021/03/25 02:30:23;;;;;;;12.15;6.15;;;17.70;99.90;;;;;;5050761;28;20136;-61
2021/03/25 02:32:56;;;;;;;13.50;6.70;;;17.80;99.90;;;;;;5050473;28;20051;-60
2021/03/25 02:35:26;;;;;;;9.25;5.95;;;17.70;99.90;;;;;;5050691;28;20021;-61
2021/03/25 02:37:59;;;;;;;10.60;6.68;;;17.70;99.90;;;;;;5050546;28;20120;-60
2021/03/25 02:40:33;;;;;;;8.65;5.97;;;17.70;99.90;;;;;;5049883;28;20025;-60
2021/03/25 02:43:16;;;;;;;9.90;6.32;;;17.70;99.90;;;;;;5050402;28;20032;-60
2021/03/25 02:45:57;;;;;;;10.00;6.10;;;17.70;99.90;;;;;;5050881;28;20029;-61
2021/03/25 02:48:25;;;;;;;10.18;6.45;;;17.70;99.90;;;;;;5050459;28;20043;-62
2021/03/25 02:50:57;;;;;;;10.18;6.25;;;17.70;99.90;;;;;;5050156;28;20029;-60
2021/03/25 02:53:44;;;;;;;11.43;6.93;;;17.60;99.90;;;;;;5050320;28;20064;-60
2021/03/25 02:56:37;;;;;;;8.18;5.68;;;17.70;99.90;;;;;;5050382;28;20070;-61
2021/03/25 02:59:08;;;;;;;10.60;6.53;;;17.60;99.90;;;;;;5032508;28;20396;-61
2021/03/25 03:01:38;;;;;;;9.70;6.00;;;17.60;99.90;;;;;;5050230;28;20035;-61
2021/03/25 03:04:17;;;;;;;10.30;5.93;;;17.60;99.90;;;;;;5050171;28;20040;-60
2021/03/25 03:06:51;;;;;;;9.80;6.40;;;17.60;99.90;;;;;;5049815;28;20061;-61
2021/03/25 03:09:26;;;;;;;10.30;6.20;;;17.60;99.90;;;;;;5050481;28;20044;-61
2021/03/25 03:11:55;;;;;;;13.60;6.65;;;17.60;99.90;;;;;;5050017;28;20112;-60
2021/03/25 03:14:39;;;;;;;10.93;6.15;;;17.60;99.90;;;;;;5050227;28;20032;-60
2021/03/25 03:17:15;;;;;;;10.90;6.18;;;17.60;99.90;;;;;;5049956;28;20447;-61
2021/03/25 03:19:53;;;;;;;9.02;5.95;;;17.60;99.90;;;;;;5049964;28;20025;-61
2021/03/25 03:22:19;;;;;;;10.18;6.47;;;17.60;99.90;;;;;;5050101;28;20044;-61
2021/03/25 03:24:51;;;;;;;9.48;6.10;;;17.50;99.90;;;;;;5049999;28;20480;-61
2021/03/25 03:27:30;;;;;;;12.45;5.82;;;17.50;99.90;;;;;;5050120;28;20033;-60
2021/03/25 03:30:01;;;;;;;8.85;6.07;;;17.50;99.90;;;;;;5049793;28;20021;-60
2021/03/25 03:32:38;;;;;;;9.63;6.65;;;17.50;99.90;;;;;;5049760;28;20021;-61
2021/03/25 03:35:18;;;;;;;10.48;6.15;;;17.50;99.90;;;;;;5048512;28;20032;-60
2021/03/25 03:37:48;;;;;;;9.80;6.00;;;17.50;99.90;;;;;;5049443;28;20060;-60
2021/03/25 03:40:25;;;;;;;10.18;6.13;;;17.50;99.90;;;;;;5049609;28;20068;-61
2021/03/25 03:42:53;;;;;;;8.48;5.63;;;17.50;99.90;;;;;;5048794;28;20033;-61
2021/03/25 03:45:23;;;;;;;8.70;5.60;;;17.50;99.90;;;;;;5049780;28;20032;-60
2021/03/25 03:47:51;;;;;;;10.27;6.22;;;17.50;99.90;;;;;;5049531;28;20496;-60
2021/03/25 03:50:23;;;;;;;7.50;5.68;;;17.50;99.90;;;;;;5049725;28;20033;-60
2021/03/25 03:52:50;;;;;;;8.43;5.60;;;17.40;99.90;;;;;;5048984;28;20492;-61
2021/03/25 03:55:18;;;;;;;10.98;6.25;;;17.40;99.90;;;;;;5049579;28;20503;-60
2021/03/25 03:58:04;;;;;;;9.93;5.70;;;17.50;99.90;;;;;;5049197;28;20029;-60
2021/03/25 04:00:43;;;;;;;7.95;5.50;;;17.50;99.90;;;;;;5049412;28;20029;-60
2021/03/25 04:03:36;;;;;;;8.43;5.80;;;17.40;99.90;;;;;;5048920;28;20369;-60
2021/03/25 04:06:12;;;;;;;9.13;5.90;;;17.40;99.90;;;;;;5049299;28;20481;-60
2021/03/25 04:08:54;;;;;;;9.50;5.65;;;17.40;99.90;;;;;;5049137;28;20098;-61
2021/03/25 04:11:31;;;;;;;9.25;5.70;;;17.40;99.90;;;;;;5049915;28;20022;-60
2021/03/25 04:14:21;;;;;;;9.52;6.00;;;17.40;99.90;;;;;;5049094;28;20033;-60
2021/03/25 04:16:48;;;;;;;10.43;6.60;;;17.40;99.90;;;;;;5019003;28;20098;-60
2021/03/25 04:19:24;;;;;;;10.52;6.20;;;17.40;99.90;;;;;;5029316;28;20022;-60
2021/03/25 04:22:01;;;;;;;7.70;5.55;;;17.40;99.90;;;;;;5029616;28;20045;-60
2021/03/25 04:24:31;;;;;;;10.52;6.25;;;17.40;99.90;;;;;;5029097;28;20026;-61
2021/03/25 04:27:10;;;;;;;10.30;5.88;;;17.30;99.90;;;;;;5028983;28;20116;-60
2021/03/25 04:29:42;;;;;;;8.45;5.45;;;17.30;99.90;;;;;;5029169;28;20104;-60
2021/03/25 04:32:09;;;;;;;8.20;6.00;;;17.30;99.90;;;;;;5033581;28;20494;-61
2021/03/25 04:34:34;;;;;;;8.80;6.10;;;17.30;99.90;;;;;;5048836;28;20502;-61
2021/03/25 04:37:02;;;;;;;9.15;5.72;;;17.30;99.90;;;;;;5048782;28;20033;-61
2021/03/25 04:39:28;;;;;;;7.43;5.40;;;17.30;99.90;;;;;;5048802;28;20029;-60
2021/03/25 04:41:56;;;;;;;10.77;5.90;;;17.30;99.90;;;;;;5048861;28;20047;-61
2021/03/25 04:44:51;;;;;;;8.82;5.65;;;17.30;99.90;;;;;;5049250;28;20025;-60
2021/03/25 04:47:30;;;;;;;11.50;6.18;;;17.30;99.90;;;;;;5048707;28;20060;-60
2021/03/25 04:50:03;;;;;;;6.85;5.32;;;17.20;99.90;;;;;;5048551;28;20029;-61
2021/03/25 04:52:32;;;;;;;7.13;5.55;;;17.20;99.90;;;;;;5048689;28;20017;-60
2021/03/25 04:55:14;;;;;;;9.20;6.13;;;17.20;99.90;;;;;;5048550;28;20500;-60
2021/03/25 04:57:47;;;;;;;10.27;6.07;;;17.20;99.90;;;;;;5048727;28;20422;-61
2021/03/25 05:00:17;;;;;;;9.63;5.95;;;17.20;99.90;;;;;;5048566;28;20043;-61
2021/03/25 05:02:44;;;;;;;8.07;5.70;;;17.20;99.90;;;;;;5047547;28;20031;-60
2021/03/25 05:05:23;;;;;;;8.75;5.85;;;17.20;99.90;;;;;;5050565;28;20381;-60
2021/03/25 05:07:54;;;;;;;7.70;5.65;;;17.20;99.90;;;;;;5051560;28;20037;-60
2021/03/25 05:10:34;;;;;;;7.72;5.78;;;17.20;99.90;;;;;;5052231;28;20028;-61
2021/03/25 05:13:00;;;;;;;9.45;6.25;;;17.20;99.90;;;;;;5052004;28;20029;-61
2021/03/25 05:15:27;;;;;;;8.27;5.60;;;17.20;99.90;;;;;;5051950;28;20028;-61
2021/03/25 05:18:14;;;;;;;7.97;5.05;;;17.20;99.90;;;;;;5052315;28;20029;-60
2021/03/25 05:20:47;;;;;;;11.77;5.30;;;17.20;99.90;;;;;;5051794;28;20092;-60
2021/03/25 05:23:53;;;;;;;6.97;5.65;;;17.20;99.90;;;;;;5051922;28;20033;-60
2021/03/25 05:26:28;;;;;;;7.15;5.57;;;17.20;99.90;;;;;;5051857;28;20120;-61
2021/03/25 05:29:00;;;;;;;8.63;5.93;;;17.20;99.90;;;;;;5052036;28;20036;-60
2021/03/25 05:31:27;;;;;;;8.27;5.55;;;17.20;99.90;;;;;;5051820;28;20044;-61
2021/03/25 05:33:55;;;;;;;9.65;5.90;;;17.10;99.90;;;;;;5051483;28;20532;-61
2021/03/25 05:36:21;;;;;;;10.13;5.97;;;17.20;99.90;;;;;;5051529;28;20108;-61
2021/03/25 05:38:47;;;;;;;8.57;5.93;;;17.10;99.90;;;;;;5051688;28;20095;-61
2021/03/25 05:41:40;;;;;;;7.63;5.57;;;17.10;99.90;;;;;;5051438;28;20078;-61
2021/03/25 05:44:43;;;;;;;7.00;5.40;;;17.20;99.90;;;;;;5051564;28;20104;-61
2021/03/25 05:47:36;;;;;;;9.38;5.70;;;17.10;99.90;;;;;;5051418;28;20017;-61
2021/03/25 05:50:30;;;;;;;7.50;5.47;;;17.10;99.90;;;;;;5051491;28;20025;-60
2021/03/25 05:53:09;;;;;;;10.85;5.97;;;17.10;99.90;;;;;;5051740;28;20021;-61
2021/03/25 05:55:35;;;;;;;7.32;5.35;;;17.10;99.90;;;;;;5051613;28;20037;-61
2021/03/25 05:58:22;;;;;;;10.57;5.82;;;17.10;99.90;;;;;;5051163;28;20491;-61
2021/03/25 06:01:07;;;;;;;10.00;6.13;;;17.10;99.90;;;;;;5050406;28;20105;-60
2021/03/25 06:03:34;;;;;;;8.13;5.72;;;17.10;99.90;;;;;;5050989;28;20025;-61
2021/03/25 06:06:01;;;;;;;8.98;5.88;;;17.00;99.90;;;;;;5051188;28;20040;-60
2021/03/25 06:08:57;;;;;;;8.57;6.10;;;17.00;99.90;;;;;;5051303;28;20500;-60
2021/03/25 06:11:32;;;;;;;11.43;5.80;;;17.00;99.90;;;;;;5051513;28;20039;-59
2021/03/25 06:14:36;;;;;;;7.43;5.20;;;17.00;99.90;;;;;;5050866;28;20564;-61
2021/03/25 06:17:31;;;;;;;8.05;5.03;;;17.00;99.90;;;;;;5008911;28;20065;-60
2021/03/25 06:20:36;;;;;;;7.38;5.32;;;17.00;99.90;;;;;;5009555;28;20457;-60
2021/03/25 06:23:25;;;;;;;8.88;5.13;;;17.00;99.90;;;;;;5048660;28;20037;-61
2021/03/25 06:25:51;;;;;;;8.18;5.78;;;17.00;99.90;;;;;;5050927;28;20481;-61
2021/03/25 06:28:42;;;;;;;8.30;5.30;;;17.00;99.90;;;;;;5050693;28;20056;-60
2021/03/25 06:31:29;;;;;;;7.25;5.85;;;17.00;99.90;;;;;;5040562;28;20033;-61
2021/03/25 06:34:18;;;;;;;7.97;5.70;;;17.00;99.90;;;;;;5051239;28;20084;-60
2021/03/25 06:37:19;;;;;;;11.63;5.20;;;16.90;99.90;;;;;;5050661;28;20068;-60
2021/03/25 06:40:04;;;;;;;9.20;5.47;;;17.00;99.90;;;;;;5050706;28;20037;-60
2021/03/25 06:42:34;;;;;;;;;;;17.00;99.90;;;;;;5050869;28;20467;-60
2021/03/25 06:45:10;;;;;;;10.07;6.18;;;17.00;99.90;;;;;;5049865;28;19911;-61
2021/03/25 06:47:41;;;;;;;9.57;5.05;;;17.00;99.90;;;;;;5050510;28;20427;-61
2021/03/25 06:50:08;;;;;;;6.90;4.93;;;16.90;99.90;;;;;;5032978;28;20082;-61
2021/03/25 06:52:37;;;;;;;11.93;7.68;;;16.90;99.90;;;;;;5049167;28;20112;-60
2021/03/25 06:55:19;;;;;;;18.02;9.82;;;16.60;99.90;;;;;;5049985;28;20108;-60
2021/03/25 06:57:54;;;;;;;19.30;12.05;;;16.30;99.90;;;;;;5050287;28;20064;-61
2021/03/25 07:00:23;;;;;;;18.80;12.35;;;16.10;99.90;;;;;;5050216;28;20067;-60
2021/03/25 07:02:49;;;;;;;16.90;11.95;;;15.90;99.90;;;;;;5050286;28;20051;-60
2021/03/25 07:05:31;;;;;;;18.40;12.18;;;15.70;99.90;;;;;;5050178;27;20035;-60
2021/03/25 07:08:02;;;;;;;18.00;12.30;;;15.60;99.90;;;;;;5050393;28;20070;-60
2021/03/25 07:10:28;;;;;;;16.05;10.48;;;15.50;99.90;;;;;;5050505;28;20025;-62
2021/03/25 07:13:03;;;;;;;16.75;9.55;;;15.50;99.90;;;;;;5050184;28;20043;-62
2021/03/25 07:15:30;;;;;;;14.80;10.50;;;15.60;99.90;;;;;;5050615;28;20062;-63
2021/03/25 07:17:56;;;;;;;13.77;10.52;;;15.60;99.90;;;;;;5049467;28;20021;-61
2021/03/25 07:20:34;;;;;;;15.73;9.93;;;15.70;99.90;;;;;;5050249;28;20089;-61
2021/03/25 07:23:00;;;;;;;17.05;10.63;;;15.70;99.90;;;;;;5050194;28;20025;-61
2021/03/25 07:25:29;;;;;;;16.10;10.20;;;15.70;99.90;;;;;;5049567;28;20035;-62
2021/03/25 07:27:56;;;;;;;17.25;10.13;;;15.80;99.90;;;;;;5048644;27;20043;-61
2021/03/25 07:30:24;;;;;;;14.40;9.15;;;15.90;99.90;;;;;;5049896;28;20036;-61
2021/03/25 07:32:56;;;;;;;14.18;9.48;;;16.00;99.90;;;;;;5048929;28;20488;-61
2021/03/25 07:35:41;;;;;;;15.75;9.10;;;16.10;99.90;;;;;;5049067;28;20037;-60
2021/03/25 07:38:27;;;;;;;14.40;9.10;;;16.10;99.90;;;;;;5049552;28;20550;-60
2021/03/25 07:41:10;;;;;;;17.13;8.68;;;16.20;99.90;;;;;;5049710;28;20029;-60
2021/03/25 07:43:48;;;;;;;14.75;9.48;;;16.20;99.90;;;;;;5049182;28;20373;-60
2021/03/25 07:46:41;;;;;;;16.08;8.32;;;16.20;99.90;;;;;;5049331;28;20028;-60
2021/03/25 07:49:10;;;;;;;12.80;8.03;;;16.20;99.90;;;;;;5048772;28;20048;-59
2021/03/25 07:51:49;;;;;;;12.55;7.43;;;16.20;99.90;;;;;;5049344;28;20057;-59
2021/03/25 07:54:29;;;;;;;12.13;7.25;;;16.20;99.90;;;;;;5049345;28;20484;-59
2021/03/25 07:56:57;;;;;;;698.13;65.95;;;16.30;99.90;;;;;;5049568;28;20148;-70
2021/03/25 07:59:36;;;;;;;39.72;8.27;;;16.30;99.90;;;;;;5049266;28;20440;-65
2021/03/25 08:02:03;;;;;;;21.60;7.05;;;16.50;99.90;;;;;;5049499;28;20039;-65
2021/03/25 08:04:31;;;;;;;14.80;7.85;;;16.40;99.90;;;;;;5049709;28;20021;-65
2021/03/25 08:07:08;;;;;;;21.58;10.18;;;16.40;99.90;;;;;;5049310;28;20025;-62
2021/03/25 08:09:47;;;;;;;17.23;11.40;;;16.10;99.90;;;;;;5049222;28;20040;-62
2021/03/25 08:12:29;;;;;;;18.67;12.23;;;15.70;99.90;;;;;;5048436;28;20021;-64
2021/03/25 08:15:35;;;;;;;19.02;13.60;;;15.40;99.90;;;;;;5048849;28;20036;-61
2021/03/25 08:18:01;;;;;;;18.00;12.68;;;15.30;99.90;;;;;;5053185;28;20038;-61
2021/03/25 08:20:43;;;;;;;19.30;13.05;;;15.00;99.90;;;;;;5036829;28;20034;-62
2021/03/25 08:23:21;;;;;;;17.10;12.38;;;15.10;99.90;;;;;;5048759;28;20073;-62
2021/03/25 08:25:56;;;;;;;15.65;12.65;;;15.10;99.90;;;;;;5048384;28;20043;-65
2021/03/25 08:28:47;;;;;;;18.95;13.15;;;15.00;99.90;;;;;;5048156;28;20422;-69
2021/03/25 08:31:38;;;;;;;23.50;11.77;;;14.90;99.90;;;;;;5048578;28;20021;-69
2021/03/25 08:34:35;;;;;;;14.95;10.75;;;15.10;99.90;;;;;;5048896;28;20036;-70
2021/03/25 08:37:21;;;;;;;16.02;10.70;;;15.40;99.90;;;;;;5037980;28;20071;-69
2021/03/25 08:39:57;;;;;;;13.30;10.20;;;15.60;99.90;;;;;;5051795;28;20120;-69
2021/03/25 08:42:31;;;;;;;14.70;9.77;;;15.70;99.90;;;;;;5029065;28;20017;-69
2021/03/25 08:45:18;;;;;;;14.45;9.70;;;15.80;99.90;;;;;;5029024;28;20029;-68
2021/03/25 08:47:58;;;;;;;12.60;8.80;;;15.90;99.90;;;;;;5038641;28;20021;-68
2021/03/25 08:50:43;;;;;;;14.57;8.68;;;15.90;99.90;;;;;;5048810;28;20025;-70
2021/03/25 08:53:51;;;;;;;11.30;7.40;;;16.00;99.90;;;;;;5048694;28;20027;-68
2021/03/25 08:56:35;;;;;;;12.93;7.65;;;16.00;99.90;;;;;;5056012;28;20041;-70
2021/03/25 08:59:16;;;;;;;11.82;7.95;;;16.10;99.90;;;;;;5048703;28;20410;-71
2021/03/25 09:01:48;;;;;;;8.88;7.03;;;16.10;99.90;;;;;;5047092;28;20056;-69
2021/03/25 09:04:16;;;;;;;9.80;6.38;;;16.10;99.90;;;;;;5047395;28;20029;-71
2021/03/25 09:06:44;;;;;;;9.68;7.00;;;16.20;99.90;;;;;;5048151;28;20029;-70
2021/03/25 09:09:16;;;;;;;8.48;6.60;;;16.30;99.90;;;;;;5048566;28;20366;-68
2021/03/25 09:11:42;;;;;;;9.75;6.32;;;16.40;99.90;;;;;;5048616;28;20017;-68
2021/03/25 09:14:18;;;;;;;14.50;6.97;;;16.40;99.90;;;;;;5048211;28;20107;-65
2021/03/25 09:16:44;;;;;;;11.43;6.93;;;16.50;99.90;;;;;;5047594;28;20404;-68
2021/03/25 09:19:26;;;;;;;8.38;6.03;;;16.60;99.90;;;;;;5047857;28;20029;-71
2021/03/25 09:21:56;;;;;;;8.98;6.72;;;16.60;99.90;;;;;;5047931;28;20029;-69
2021/03/25 09:24:21;;;;;;;8.20;6.30;;;16.70;99.90;;;;;;5048354;28;20507;-69
2021/03/25 09:26:55;;;;;;;7.97;6.28;;;16.70;99.90;;;;;;5048279;28;20060;-71
2021/03/25 09:29:24;;;;;;;7.30;6.13;;;16.80;99.90;;;;;;5048285;28;20037;-68
2021/03/25 09:31:56;;;;;;;8.68;6.18;;;16.90;99.90;;;;;;5048142;28;20402;-67
2021/03/25 09:34:24;;;;;;;8.80;6.15;;;16.90;99.90;;;;;;5048206;28;20366;-67
2021/03/25 09:36:53;;;;;;;11.18;6.03;;;17.00;99.90;;;;;;5048155;28;20082;-67
2021/03/25 09:39:34;;;;;;;10.00;6.07;;;17.10;99.90;;;;;;5047951;28;20025;-68
2021/03/25 09:42:14;;;;;;;8.18;5.95;;;17.20;99.90;;;;;;5046607;28;20037;-71
2021/03/25 09:44:40;;;;;;;8.45;5.93;;;17.30;99.90;;;;;;5048180;28;20468;-69
2021/03/25 09:47:36;;;;;;;7.63;5.30;;;17.30;99.90;;;;;;5048417;28;20037;-67
2021/03/25 09:50:01;;;;;;;8.88;5.95;;;17.40;99.90;;;;;;5047409;28;20037;-71
2021/03/25 09:52:33;;;;;;;11.23;5.70;;;17.40;99.90;;;;;;5046352;28;20025;-68
2021/03/25 09:54:59;;;;;;;9.93;6.05;;;17.50;99.90;;;;;;5050888;28;20117;-64
2021/03/25 09:57:30;;;;;;;7.93;5.57;;;17.60;99.90;;;;;;5051364;28;20459;-67
2021/03/25 10:00:06;;;;;;;7.80;5.53;;;17.60;99.90;;;;;;5051029;28;20029;-66
2021/03/25 10:02:38;;;;;;;9.43;5.43;;;17.70;99.90;;;;;;5050807;28;20017;-68
2021/03/25 10:05:30;;;;;;;9.23;5.43;;;17.80;99.90;;;;;;5051250;28;20029;-67
2021/03/25 10:07:56;;;;;;;6.15;4.60;;;17.80;99.90;;;;;;5051440;28;20029;-70
2021/03/25 10:10:34;;;;;;;7.30;5.07;;;17.90;99.90;;;;;;5050847;28;20120;-69
2021/03/25 10:13:06;;;;;;;7.32;5.20;;;17.90;99.90;;;;;;5050894;28;20017;-67
2021/03/25 10:15:36;;;;;;;8.23;5.03;;;18.00;99.90;;;;;;5050482;28;20033;-67
2021/03/25 10:18:07;;;;;;;10.73;5.28;;;18.00;99.90;;;;;;5045505;28;20025;-68
2021/03/25 10:21:06;;;;;;;6.68;4.82;;;18.10;99.90;;;;;;5050353;28;20041;-69
2021/03/25 10:23:50;;;;;;;5.97;4.40;;;18.10;99.90;;;;;;5049783;28;20040;-70
2021/03/25 10:26:33;;;;;;;7.13;5.22;;;18.20;99.90;;;;;;5050956;28;20029;-68
2021/03/25 10:29:11;;;;;;;8.63;5.15;;;18.20;99.90;;;;;;5048207;28;20033;-70
2021/03/25 10:31:46;;;;;;;7.93;5.13;;;18.20;99.90;;;;;;5034474;28;20021;-69
2021/03/25 10:34:19;;;;;;;6.15;4.70;;;18.20;99.90;;;;;;5045513;28;20118;-70
2021/03/25 10:37:12;;;;;;;7.35;5.03;;;18.20;99.90;;;;;;5049226;28;20073;-71
2021/03/25 10:39:42;;;;;;;5.85;4.32;;;18.30;99.90;;;;;;5052266;28;20044;-71
2021/03/25 10:42:36;;;;;;;6.38;4.50;;;18.30;99.90;;;;;;5049470;28;20053;-71
2021/03/25 10:45:17;;;;;;;;;;;18.30;99.90;;;;;;5033513;28;20444;-70
2021/03/25 10:48:06;;;;;;;6.13;4.20;;;18.30;99.90;;;;;;5049454;28;20275;-69
2021/03/25 10:50:47;;;;;;;6.35;4.55;;;18.40;99.90;;;;;;5049717;28;20081;-71
2021/03/25 10:53:17;;;;;;;7.47;4.50;;;18.40;99.90;;;;;;5043170;28;20377;-69
2021/03/25 10:55:46;;;;;;;5.43;4.30;;;18.40;99.90;;;;;;5046449;28;20021;-67
2021/03/25 10:58:30;;;;;;;6.68;4.10;;;18.40;99.90;;;;;;5050515;28;20021;-69
2021/03/25 11:01:24;;;;;;;6.60;4.50;;;18.50;99.90;;;;;;5049984;28;20079;-70
2021/03/25 11:03:50;;;;;;;5.95;3.95;;;18.50;99.90;;;;;;5049234;28;20048;-67
2021/03/25 11:06:20;;;;;;;5.03;3.90;;;18.50;99.90;;;;;;5100586;27;20175;-64
2021/03/25 11:08:46;;;;;;;5.82;3.85;;;18.30;99.80;;;;;;5049702;28;20502;-67
2021/03/25 11:11:24;;;;;;;7.32;3.33;;;18.40;99.90;;;;;;5049879;28;20052;-69
2021/03/25 11:14:01;;;;;;;8.15;3.10;;;18.60;99.90;;;;;;5050256;28;20382;-70
2021/03/25 11:16:28;;;;;;;4.10;2.80;;;18.70;99.80;;;;;;5050339;28;20044;-70
2021/03/25 11:19:03;;;;;;;6.32;2.90;;;18.70;99.60;;;;;;5049992;28;20371;-68
2021/03/25 11:21:37;;;;;;;11.18;6.57;;;18.60;99.20;;;;;;5050139;28;20132;-67
2021/03/25 11:24:29;;;;;;;9.38;6.68;;;17.80;98.20;;;;;;5046702;28;20109;-68
2021/03/25 11:26:57;;;;;;;10.02;5.50;;;17.30;99.10;;;;;;5038237;28;20034;-67
2021/03/25 11:29:24;;;;;;;7.60;5.00;;;17.50;99.20;;;;;;5037551;28;20100;-70
2021/03/25 11:32:08;;;;;;;8.65;4.97;;;17.60;99.10;;;;;;5047486;28;20029;-70
2021/03/25 11:34:33;;;;;;;9.37;4.50;;;17.80;99.10;;;;;;5041802;28;20067;-68
2021/03/25 11:37:00;;;;;;;9.93;4.22;;;17.80;99.00;;;;;;5042631;28;20295;-67
2021/03/25 11:39:31;;;;;;;7.88;4.00;;;17.90;99.10;;;;;;5045796;28;20054;-68
2021/03/25 11:42:03;;;;;;;7.18;3.88;;;17.90;99.10;;;;;;5049934;28;20101;-63
2021/03/25 11:44:47;;;;;;;7.15;3.90;;;17.90;99.20;;;;;;5045342;28;20029;-63
2021/03/25 11:47:45;;;;;;;7.13;3.70;;;17.90;99.20;;;;;;5035425;28;20029;-62
2021/03/25 11:50:20;;;;;;;5.95;3.42;;;17.90;99.20;;;;;;5004437;28;20115;-62
2021/03/25 11:52:52;;;;;;;5.15;3.47;;;17.90;99.30;;;;;;5034869;28;20026;-62
2021/03/25 11:55:37;;;;;;;6.03;3.13;;;17.90;99.30;;;;;;5039685;28;20037;-62
2021/03/25 11:58:19;;;;;;;4.50;2.70;;;18.00;99.40;;;;;;5036052;28;20538;-61
2021/03/25 12:01:05;;;;;;;7.10;3.47;;;18.00;99.40;;;;;;5029929;28;20553;-62
2021/03/25 12:03:52;;;;;;;5.05;2.75;;;18.00;99.50;;;;;;5028370;28;20113;-62
2021/03/25 12:06:34;;;;;;;4.32;2.60;;;18.00;99.50;;;;;;5029804;28;20035;-62
2021/03/25 12:09:12;;;;;;;6.13;2.67;;;18.10;99.60;;;;;;5029926;28;20558;-62
2021/03/25 12:11:39;;;;;;;4.82;2.40;;;18.10;99.60;;;;;;5041411;28;20032;-63
2021/03/25 12:14:06;;;;;;;3.88;2.38;;;18.00;99.60;;;;;;5044508;28;20032;-62
2021/03/25 12:16:33;;;;;;;6.07;2.78;;;18.00;99.70;;;;;;5040735;28;20064;-62
2021/03/25 12:19:00;;;;;;;3.33;2.38;;;18.10;99.80;;;;;;5040354;28;20107;-61
2021/03/25 12:21:26;;;;;;;5.10;3.05;;;18.10;99.90;;;;;;5039495;28;20061;-61
2021/03/25 12:23:57;;;;;;;4.70;2.90;;;18.00;99.90;;;;;;5037465;28;20445;-61
2021/03/25 12:26:23;;;;;;;4.50;2.60;;;18.00;99.90;;;;;;5038203;28;20105;-61
2021/03/25 12:28:49;;;;;;;4.30;2.50;;;18.00;99.90;;;;;;5036150;28;20069;-61
2021/03/25 12:31:20;;;;;;;6.28;2.60;;;18.00;99.90;;;;;;5038399;28;20039;-61
2021/03/25 12:33:46;;;;;;;3.60;2.67;;;18.10;99.90;;;;;;5038962;28;20032;-61
2021/03/25 12:36:13;;;;;;;4.50;2.60;;;18.10;99.90;;;;;;5036502;28;20022;-61
2021/03/25 12:38:39;;;;;;;5.00;2.90;;;18.00;99.90;;;;;;5028957;28;20033;-61
2021/03/25 12:41:06;;;;;;;5.40;2.92;;;18.00;99.90;;;;;;5028923;28;20028;-63
2021/03/25 12:43:34;;;;;;;8.25;2.70;;;18.00;99.90;;;;;;5028836;28;20032;-63
2021/03/25 12:46:08;;;;;;;5.65;2.72;;;18.00;99.90;;;;;;5031516;28;20028;-62
2021/03/25 12:48:34;;;;;;;4.18;2.70;;;18.10;99.90;;;;;;5048084;28;20120;-61
2021/03/25 12:51:02;;;;;;;6.63;2.78;;;18.20;99.90;;;;;;5048316;28;20026;-61
2021/03/25 12:53:29;;;;;;;2.83;2.15;;;18.30;99.90;;;;;;5043464;28;20029;-63
2021/03/25 12:55:56;;;;;;;5.63;2.85;;;18.30;99.90;;;;;;5039327;28;20029;-62
2021/03/25 12:58:34;;;;;;;8.70;2.80;;;18.30;99.90;;;;;;5048471;28;20040;-63
2021/03/25 13:01:06;;;;;;;5.78;2.45;;;18.30;99.90;;;;;;5028923;28;20389;-62
2021/03/25 13:03:32;;;;;;;3.65;2.15;;;18.50;99.90;;;;;;5028907;28;20066;-60
2021/03/25 13:05:57;;;;;;;6.03;2.63;;;18.60;99.90;;;;;;5027510;28;20409;-60
2021/03/25 13:08:23;;;;;;;4.95;2.38;;;18.70;99.90;;;;;;5028566;28;20131;-61
2021/03/25 13:10:49;;;;;;;7.35;2.55;;;18.80;99.90;;;;;;5028638;28;20032;-60
2021/03/25 13:13:16;;;;;;;5.55;2.67;;;18.80;99.90;;;;;;5028885;28;20037;-62
2021/03/25 13:15:41;;;;;;;7.07;2.90;;;18.80;99.90;;;;;;5028909;28;20057;-62
2021/03/25 13:18:07;;;;;;;5.40;2.40;;;19.00;99.90;;;;;;5048077;28;20497;-62
2021/03/25 13:20:34;;;;;;;4.55;2.67;;;19.00;99.90;;;;;;5068746;28;20019;-61
2021/03/25 13:23:00;;;;;;;4.50;2.50;;;19.10;99.90;;;;;;5132369;28;20075;-62
2021/03/25 13:25:32;;;;;;;6.18;2.60;;;19.20;99.90;;;;;;5132526;27;20474;-62